sensor_id;sensor_type;location;lat;lon;timestamp;pressure;altitude;pressure_sealevel;temperature;humidity
30021;BME280;16861;52.294;7.760;2023-02-20T00:01:21;100626.00;;;8.19;73.51
30021;BME280;16861;52.294;7.760;2023-02-20T00:03:48;100616.53;;;8.15;73.39
30021;BME280;16861;52.294;7.760;2023-02-20T00:06:14;100614.03;;;8.12;73.66
30021;BME280;16861;52.294;7.760;2023-02-20T00:08:41;100607.19;;;8.08;73.27
30021;BME280;16861;52.294;7.760;2023-02-20T00:11:07;100607.22;;;8.06;73.31
30021;BME280;16861;52.294;7.760;2023-02-20T00:13:34;100612.50;;;8.05;73.87
30021;BME280;16861;52.294;7.760;2023-02-20T00:16:01;100606.41;;;8.04;73.59
30021;BME280;16861;52.294;7.760;2023-02-20T00:18:27;100596.81;;;8.03;73.59
30021;BME280;16861;52.294;7.760;2023-02-20T00:20:54;100590.72;;;8.03;73.95
30021;BME280;16861;52.294;7.760;2023-02-20T00:23:20;100593.34;;;8.03;73.71
30021;BME280;16861;52.294;7.760;2023-02-20T00:25:47;100583.75;;;8.02;74.08
30021;BME280;16861;52.294;7.760;2023-02-20T00:28:13;100578.53;;;8.02;73.75
30021;BME280;16861;52.294;7.760;2023-02-20T00:30:40;100578.53;;;8.02;73.67
30021;BME280;16861;52.294;7.760;2023-02-20T00:33:07;100573.31;;;8.00;73.81
30021;BME280;16861;52.294;7.760;2023-02-20T00:35:33;100582.97;;;8.00;73.80
30021;BME280;16861;52.294;7.760;2023-02-20T00:37:59;100574.28;;;7.98;73.60
30021;BME280;16861;52.294;7.760;2023-02-20T00:40:26;100562.13;;;7.95;73.63
30021;BME280;16861;52.294;7.760;2023-02-20T00:42:53;100560.47;;;7.92;73.68
30021;BME280;16861;52.294;7.760;2023-02-20T00:45:19;100562.31;;;7.90;73.87
30021;BME280;16861;52.294;7.760;2023-02-20T00:47:46;100550.94;;;7.90;73.91
30021;BME280;16861;52.294;7.760;2023-02-20T00:50:14;100560.69;;;7.86;73.50
30021;BME280;16861;52.294;7.760;2023-02-20T00:52:41;100554.56;;;7.86;74.23
30021;BME280;16861;52.294;7.760;2023-02-20T00:55:08;100544.13;;;7.84;73.88
30021;BME280;16861;52.294;7.760;2023-02-20T00:57:34;100546.81;;;7.82;74.28
30021;BME280;16861;52.294;7.760;2023-02-20T01:00:01;100544.19;;;7.82;74.20
30021;BME280;16861;52.294;7.760;2023-02-20T01:02:28;100548.63;;;7.80;74.15
30021;BME280;16861;52.294;7.760;2023-02-20T01:04:54;100544.31;;;7.79;74.05
30021;BME280;16861;52.294;7.760;2023-02-20T01:07:22;100533.81;;;7.79;74.31
30021;BME280;16861;52.294;7.760;2023-02-20T01:09:48;100546.94;;;7.79;74.50
30021;BME280;16861;52.294;7.760;2023-02-20T01:12:15;100520.72;;;7.79;74.23
30021;BME280;16861;52.294;7.760;2023-02-20T01:14:42;100511.06;;;7.80;74.20
30021;BME280;16861;52.294;7.760;2023-02-20T01:17:09;100502.28;;;7.81;74.66
30021;BME280;16861;52.294;7.760;2023-02-20T01:19:37;100509.31;;;7.80;74.17
30021;BME280;16861;52.294;7.760;2023-02-20T01:22:04;100515.47;;;7.79;74.52
30021;BME280;16861;52.294;7.760;2023-02-20T01:24:34;100514.59;;;7.79;74.40
30021;BME280;16861;52.294;7.760;2023-02-20T01:27:00;100511.97;;;7.79;74.57
30021;BME280;16861;52.294;7.760;2023-02-20T01:29:27;100504.13;;;7.79;74.35
30021;BME280;16861;52.294;7.760;2023-02-20T01:31:53;100500.69;;;7.77;74.00
30021;BME280;16861;52.294;7.760;2023-02-20T01:34:20;100497.19;;;7.78;74.38
30021;BME280;16861;52.294;7.760;2023-02-20T01:36:52;100492.03;;;7.75;73.45
30021;BME280;16861;52.294;7.760;2023-02-20T01:39:22;100489.41;;;7.75;73.64
30021;BME280;16861;52.294;7.760;2023-02-20T01:41:54;100489.41;;;7.75;74.30
30021;BME280;16861;52.294;7.760;2023-02-20T01:44:29;100468.50;;;7.73;74.05
30021;BME280;16861;52.294;7.760;2023-02-20T01:46:57;100470.28;;;7.73;74.52
30021;BME280;16861;52.294;7.760;2023-02-20T01:49:37;100458.91;;;7.72;73.75
30021;BME280;16861;52.294;7.760;2023-02-20T01:54:36;100449.19;;;7.76;74.33
30021;BME280;16861;52.294;7.760;2023-02-20T01:57:08;100448.25;;;7.77;74.13
30021;BME280;16861;52.294;7.760;2023-02-20T01:59:40;100438.59;;;7.79;74.71
30021;BME280;16861;52.294;7.760;2023-02-20T02:02:07;100414.91;;;7.82;74.68
30021;BME280;16861;52.294;7.760;2023-02-20T02:04:35;100414.91;;;7.82;74.37
30021;BME280;16861;52.294;7.760;2023-02-20T02:07:03;100420.91;;;7.86;74.81
30021;BME280;16861;52.294;7.760;2023-02-20T02:12:07;100425.16;;;7.88;74.57
30021;BME280;16861;52.294;7.760;2023-02-20T02:14:34;100411.09;;;7.91;74.56
30021;BME280;16861;52.294;7.760;2023-02-20T02:33:51;100375.16;;;7.94;73.27
30021;BME280;16861;52.294;7.760;2023-02-20T02:36:41;100387.25;;;7.99;73.77
30021;BME280;16861;52.294;7.760;2023-02-20T02:39:22;100375.03;;;7.98;73.51
30021;BME280;16861;52.294;7.760;2023-02-20T02:42:06;100364.72;;;7.93;73.03
30021;BME280;16861;52.294;7.760;2023-02-20T02:44:40;100364.72;;;7.93;73.58
30021;BME280;16861;52.294;7.760;2023-02-20T02:49:55;100355.22;;;7.90;74.13
30021;BME280;16861;52.294;7.760;2023-02-20T02:52:25;100348.25;;;7.89;74.52
30021;BME280;16861;52.294;7.760;2023-02-20T02:55:22;100342.31;;;7.84;73.30
30021;BME280;16861;52.294;7.760;2023-02-20T02:57:49;100329.09;;;7.87;74.45
30021;BME280;16861;52.294;7.760;2023-02-20T03:00:21;100338.84;;;7.84;74.03
30021;BME280;16861;52.294;7.760;2023-02-20T03:05:53;100336.34;;;7.80;73.71
30021;BME280;16861;52.294;7.760;2023-02-20T03:11:19;100332.84;;;7.80;73.84
30021;BME280;16861;52.294;7.760;2023-02-20T03:19:36;100333.75;;;7.79;74.21
30021;BME280;16861;52.294;7.760;2023-02-20T03:22:09;100344.97;;;7.82;74.47
30021;BME280;16861;52.294;7.760;2023-02-20T03:24:39;100327.44;;;7.85;74.97
30021;BME280;16861;52.294;7.760;2023-02-20T03:27:25;100332.63;;;7.86;74.88
30021;BME280;16861;52.294;7.760;2023-02-20T03:29:54;100317.81;;;7.85;73.42
30021;BME280;16861;52.294;7.760;2023-02-20T03:32:25;100331.63;;;7.90;74.63
30021;BME280;16861;52.294;7.760;2023-02-20T03:35:12;100340.28;;;7.92;74.94
30021;BME280;16861;52.294;7.760;2023-02-20T03:37:59;100324.50;;;7.94;75.59
30021;BME280;16861;52.294;7.760;2023-02-20T03:40:48;100321.00;;;7.93;75.48
30021;BME280;16861;52.294;7.760;2023-02-20T03:43:34;100318.28;;;7.97;75.51
30021;BME280;16861;52.294;7.760;2023-02-20T03:46:05;100311.28;;;7.97;74.68
30021;BME280;16861;52.294;7.760;2023-02-20T03:51:06;100303.16;;;8.03;74.76
30021;BME280;16861;52.294;7.760;2023-02-20T03:53:43;100297.94;;;8.03;74.67
30021;BME280;16861;52.294;7.760;2023-02-20T03:56:15;100304.88;;;8.04;74.51
30021;BME280;16861;52.294;7.760;2023-02-20T03:58:47;100311.84;;;8.05;74.65
30021;BME280;16861;52.294;7.760;2023-02-20T04:01:19;100310.94;;;8.06;74.64
30021;BME280;16861;52.294;7.760;2023-02-20T04:03:49;100316.16;;;8.06;74.90
30021;BME280;16861;52.294;7.760;2023-02-20T04:06:18;100312.69;;;8.06;74.56
30021;BME280;16861;52.294;7.760;2023-02-20T04:09:04;100297.00;;;8.04;73.47
30021;BME280;16861;52.294;7.760;2023-02-20T04:11:42;100296.94;;;8.06;74.77
30021;BME280;16861;52.294;7.760;2023-02-20T04:14:12;100294.38;;;8.04;73.91
30021;BME280;16861;52.294;7.760;2023-02-20T04:16:46;100277.81;;;8.04;74.11
30021;BME280;16861;52.294;7.760;2023-02-20T04:19:14;100281.22;;;8.06;74.76
30021;BME280;16861;52.294;7.760;2023-02-20T04:21:45;100267.44;;;8.01;74.43
30021;BME280;16861;52.294;7.760;2023-02-20T04:24:31;100264.81;;;8.01;74.28
30021;BME280;16861;52.294;7.760;2023-02-20T04:27:01;100259.53;;;8.02;74.89
30021;BME280;16861;52.294;7.760;2023-02-20T04:29:28;100255.13;;;8.03;74.77
30021;BME280;16861;52.294;7.760;2023-02-20T04:31:55;100261.28;;;8.02;74.75
30021;BME280;16861;52.294;7.760;2023-02-20T04:34:22;100251.72;;;8.01;74.75
30021;BME280;16861;52.294;7.760;2023-02-20T04:36:51;100249.13;;;7.99;74.75
30021;BME280;16861;52.294;7.760;2023-02-20T04:39:19;100257.94;;;7.98;74.80
30021;BME280;16861;52.294;7.760;2023-02-20T04:41:47;100258.78;;;7.99;75.05
30021;BME280;16861;52.294;7.760;2023-02-20T04:44:13;100241.28;;;7.99;75.02
30021;BME280;16861;52.294;7.760;2023-02-20T04:47:05;100237.00;;;7.97;74.43
30021;BME280;16861;52.294;7.760;2023-02-20T04:49:32;100239.63;;;7.97;75.08
30021;BME280;16861;52.294;7.760;2023-02-20T04:51:59;100233.53;;;7.96;74.82
30021;BME280;16861;52.294;7.760;2023-02-20T04:54:26;100237.94;;;7.95;75.22
30021;BME280;16861;52.294;7.760;2023-02-20T04:56:52;100248.41;;;7.95;75.55
30021;BME280;16861;52.294;7.760;2023-02-20T04:59:19;100238.91;;;7.93;75.17
30021;BME280;16861;52.294;7.760;2023-02-20T05:01:46;100246.75;;;7.93;75.34
30021;BME280;16861;52.294;7.760;2023-02-20T05:04:18;100248.53;;;7.92;75.33
30021;BME280;16861;52.294;7.760;2023-02-20T05:06:48;100245.91;;;7.92;75.25
30021;BME280;16861;52.294;7.760;2023-02-20T05:09:15;100231.88;;;7.93;75.39
30021;BME280;16861;52.294;7.760;2023-02-20T05:11:42;100247.53;;;7.95;75.41
30021;BME280;16861;52.294;7.760;2023-02-20T05:14:09;100230.97;;;7.94;75.40
30021;BME280;16861;52.294;7.760;2023-02-20T05:16:36;100249.34;;;7.94;75.41
30021;BME280;16861;52.294;7.760;2023-02-20T05:19:03;100248.41;;;7.95;75.46
30021;BME280;16861;52.294;7.760;2023-02-20T05:21:30;100227.44;;;7.95;75.43
30021;BME280;16861;52.294;7.760;2023-02-20T05:24:15;100248.41;;;7.95;75.40
30021;BME280;16861;52.294;7.760;2023-02-20T05:26:42;100235.31;;;7.95;75.58
30021;BME280;16861;52.294;7.760;2023-02-20T05:29:09;100249.34;;;7.94;75.66
30021;BME280;16861;52.294;7.760;2023-02-20T05:31:38;100238.97;;;7.91;75.08
30021;BME280;16861;52.294;7.760;2023-02-20T05:34:06;100228.47;;;7.91;75.12
30021;BME280;16861;52.294;7.760;2023-02-20T05:36:33;100228.59;;;7.88;75.26
30021;BME280;16861;52.294;7.760;2023-02-20T05:39:00;100228.63;;;7.87;75.32
30021;BME280;16861;52.294;7.760;2023-02-20T05:41:26;100219.13;;;7.84;75.59
30021;BME280;16861;52.294;7.760;2023-02-20T05:43:53;100227.00;;;7.84;75.57
30021;BME280;16861;52.294;7.760;2023-02-20T05:46:24;100224.47;;;7.81;75.48
30021;BME280;16861;52.294;7.760;2023-02-20T05:48:52;100237.56;;;7.81;76.06
30021;BME280;16861;52.294;7.760;2023-02-20T05:51:27;100228.00;;;7.80;75.46
30021;BME280;16861;52.294;7.760;2023-02-20T05:53:54;100238.41;;;7.83;75.91
30021;BME280;16861;52.294;7.760;2023-02-20T05:56:21;100248.81;;;7.85;76.07
30021;BME280;16861;52.294;7.760;2023-02-20T05:58:47;100245.28;;;7.86;76.23
30021;BME280;16861;52.294;7.760;2023-02-20T06:01:25;100255.03;;;7.82;75.42
30021;BME280;16861;52.294;7.760;2023-02-20T06:03:52;100237.38;;;7.87;76.22
30021;BME280;16861;52.294;7.760;2023-02-20T06:06:19;100244.25;;;7.90;76.16
30021;BME280;16861;52.294;7.760;2023-02-20T06:08:46;100241.56;;;7.91;76.24
30021;BME280;16861;52.294;7.760;2023-02-20T06:11:14;100228.41;;;7.93;76.30
30021;BME280;16861;52.294;7.760;2023-02-20T06:13:42;100223.19;;;7.93;76.10
30021;BME280;16861;52.294;7.760;2023-02-20T06:16:09;100229.25;;;7.93;76.13
30021;BME280;16861;52.294;7.760;2023-02-20T06:18:42;100229.31;;;7.92;76.02
30021;BME280;16861;52.294;7.760;2023-02-20T06:21:09;100224.94;;;7.92;75.80
30021;BME280;16861;52.294;7.760;2023-02-20T06:23:42;100216.03;;;7.97;76.08
30021;BME280;16861;52.294;7.760;2023-02-20T06:26:13;100227.34;;;7.99;76.42
30021;BME280;16861;52.294;7.760;2023-02-20T06:28:41;100214.28;;;7.97;75.94
30021;BME280;16861;52.294;7.760;2023-02-20T06:31:08;100208.06;;;8.00;76.37
30021;BME280;16861;52.294;7.760;2023-02-20T06:33:35;100222.94;;;7.99;76.25
30021;BME280;16861;52.294;7.760;2023-02-20T06:36:03;100228.16;;;7.99;76.69
30021;BME280;16861;52.294;7.760;2023-02-20T06:38:30;100206.22;;;8.02;76.38
30021;BME280;16861;52.294;7.760;2023-02-20T06:40:56;100205.25;;;8.04;76.39
30021;BME280;16861;52.294;7.760;2023-02-20T06:43:23;100212.28;;;8.04;76.14
30021;BME280;16861;52.294;7.760;2023-02-20T06:45:49;100204.34;;;8.05;76.50
30021;BME280;16861;52.294;7.760;2023-02-20T06:48:17;100197.31;;;8.06;76.28
30021;BME280;16861;52.294;7.760;2023-02-20T06:50:43;100205.19;;;8.06;76.27
30021;BME280;16861;52.294;7.760;2023-02-20T06:53:09;100200.75;;;8.08;76.53
30021;BME280;16861;52.294;7.760;2023-02-20T06:55:36;100211.09;;;8.11;76.34
30021;BME280;16861;52.294;7.760;2023-02-20T06:58:03;100221.59;;;8.11;76.34
30021;BME280;16861;52.294;7.760;2023-02-20T07:00:29;100225.94;;;8.12;76.61
30021;BME280;16861;52.294;7.760;2023-02-20T07:02:56;100211.91;;;8.13;76.55
30021;BME280;16861;52.294;7.760;2023-02-20T07:05:22;100234.53;;;8.16;76.69
30021;BME280;16861;52.294;7.760;2023-02-20T07:07:49;100209.94;;;8.18;76.73
30021;BME280;16861;52.294;7.760;2023-02-20T07:10:15;100204.66;;;8.20;76.46
30021;BME280;16861;52.294;7.760;2023-02-20T07:12:42;100217.66;;;8.23;76.56
30021;BME280;16861;52.294;7.760;2023-02-20T07:15:10;100220.13;;;8.26;76.53
30021;BME280;16861;52.294;7.760;2023-02-20T07:17:37;100236.66;;;8.28;76.66
30021;BME280;16861;52.294;7.760;2023-02-20T07:20:04;100224.34;;;8.30;76.50
30021;BME280;16861;52.294;7.760;2023-02-20T07:22:31;100229.59;;;8.30;76.29
30021;BME280;16861;52.294;7.760;2023-02-20T07:24:57;100230.34;;;8.34;76.54
30021;BME280;16861;52.294;7.760;2023-02-20T07:27:24;100220.63;;;8.36;76.50
30021;BME280;16861;52.294;7.760;2023-02-20T07:29:50;100231.97;;;8.37;76.28
30021;BME280;16861;52.294;7.760;2023-02-20T07:36:04;100224.06;;;8.38;75.57
30021;BME280;16861;52.294;7.760;2023-02-20T07:41:26;100235.97;;;8.45;76.08
30021;BME280;16861;52.294;7.760;2023-02-20T07:44:02;100215.00;;;8.45;76.21
30021;BME280;16861;52.294;7.760;2023-02-20T07:46:29;100222.81;;;8.47;76.09
30021;BME280;16861;52.294;7.760;2023-02-20T07:49:00;100229.75;;;8.48;76.03
30021;BME280;16861;52.294;7.760;2023-02-20T07:51:27;100226.25;;;8.49;76.02
30021;BME280;16861;52.294;7.760;2023-02-20T07:53:54;100234.03;;;8.51;75.96
30021;BME280;16861;52.294;7.760;2023-02-20T07:56:22;100212.13;;;8.52;76.19
30021;BME280;16861;52.294;7.760;2023-02-20T07:58:49;100211.25;;;8.53;76.16
30021;BME280;16861;52.294;7.760;2023-02-20T08:01:16;100234.81;;;8.54;76.10
30021;BME280;16861;52.294;7.760;2023-02-20T08:03:43;100203.16;;;8.57;76.25
30021;BME280;16861;52.294;7.760;2023-02-20T08:06:10;100205.72;;;8.59;76.13
30021;BME280;16861;52.294;7.760;2023-02-20T08:08:37;100210.00;;;8.62;76.44
30021;BME280;16861;52.294;7.760;2023-02-20T08:11:04;100213.47;;;8.62;76.27
30021;BME280;16861;52.294;7.760;2023-02-20T08:13:36;100201.06;;;8.66;76.17
30021;BME280;16861;52.294;7.760;2023-02-20T08:16:02;100213.38;;;8.65;75.96
30021;BME280;16861;52.294;7.760;2023-02-20T08:18:29;100210.59;;;8.68;75.85
30021;BME280;16861;52.294;7.760;2023-02-20T08:20:55;100209.63;;;8.71;75.92
30021;BME280;16861;52.294;7.760;2023-02-20T08:23:23;100230.53;;;8.72;76.04
30021;BME280;16861;52.294;7.760;2023-02-20T08:25:49;100218.16;;;8.76;76.09
30021;BME280;16861;52.294;7.760;2023-02-20T08:28:18;100183.13;;;8.77;76.01
30021;BME280;16861;52.294;7.760;2023-02-20T08:30:44;100189.22;;;8.78;76.47
30021;BME280;16861;52.294;7.760;2023-02-20T08:33:11;100200.56;;;8.78;76.48
30021;BME280;16861;52.294;7.760;2023-02-20T08:35:38;100211.94;;;8.79;76.21
30021;BME280;16861;52.294;7.760;2023-02-20T08:38:06;100199.56;;;8.81;76.52
30021;BME280;16861;52.294;7.760;2023-02-20T08:40:33;100185.41;;;8.85;76.24
30021;BME280;16861;52.294;7.760;2023-02-20T08:43:00;100187.13;;;8.86;76.85
30021;BME280;16861;52.294;7.760;2023-02-20T08:45:27;100200.16;;;8.88;76.42
30021;BME280;16861;52.294;7.760;2023-02-20T08:47:56;100209.03;;;8.85;75.99
30021;BME280;16861;52.294;7.760;2023-02-20T08:50:27;100192.22;;;8.89;76.51
30021;BME280;16861;52.294;7.760;2023-02-20T08:52:53;100200.91;;;8.91;76.46
30021;BME280;16861;52.294;7.760;2023-02-20T08:55:19;100200.84;;;8.93;76.54
30021;BME280;16861;52.294;7.760;2023-02-20T08:57:46;100184.09;;;8.95;76.41
30021;BME280;16861;52.294;7.760;2023-02-20T09:00:14;100175.25;;;8.98;76.27
30021;BME280;16861;52.294;7.760;2023-02-20T09:02:41;100188.31;;;8.99;76.73
30021;BME280;16861;52.294;7.760;2023-02-20T09:05:09;100184.69;;;9.02;76.55
30021;BME280;16861;52.294;7.760;2023-02-20T09:07:35;100183.69;;;9.05;76.71
30021;BME280;16861;52.294;7.760;2023-02-20T09:10:02;100193.28;;;9.06;76.96
30021;BME280;16861;52.294;7.760;2023-02-20T09:12:30;100170.44;;;9.08;76.81
30021;BME280;16861;52.294;7.760;2023-02-20T09:14:57;100187.91;;;9.09;76.76
30021;BME280;16861;52.294;7.760;2023-02-20T09:17:28;100169.44;;;9.10;76.74
30021;BME280;16861;52.294;7.760;2023-02-20T09:19:54;100173.72;;;9.13;76.84
30021;BME280;16861;52.294;7.760;2023-02-20T09:22:25;100183.28;;;9.14;76.45
30021;BME280;16861;52.294;7.760;2023-02-20T09:24:53;100181.44;;;9.16;76.64
30021;BME280;16861;52.294;7.760;2023-02-20T09:27:20;100185.78;;;9.17;76.49
30021;BME280;16861;52.294;7.760;2023-02-20T09:29:46;100182.09;;;9.21;76.62
30021;BME280;16861;52.294;7.760;2023-02-20T09:32:13;100175.88;;;9.24;76.90
30021;BME280;16861;52.294;7.760;2023-02-20T09:34:40;100180.19;;;9.25;76.57
30021;BME280;16861;52.294;7.760;2023-02-20T09:37:06;100202.91;;;9.26;76.70
30021;BME280;16861;52.294;7.760;2023-02-20T09:39:34;100188.78;;;9.29;76.81
30021;BME280;16861;52.294;7.760;2023-02-20T09:47:37;100191.91;;;9.37;76.29
30021;BME280;16861;52.294;7.760;2023-02-20T09:50:17;100193.59;;;9.38;76.22
30021;BME280;16861;52.294;7.760;2023-02-20T09:52:57;100198.69;;;9.43;75.99
30021;BME280;16861;52.294;7.760;2023-02-20T09:55:33;100204.56;;;9.48;76.55
30021;BME280;16861;52.294;7.760;2023-02-20T09:58:02;100189.44;;;9.53;76.43
30021;BME280;16861;52.294;7.760;2023-02-20T10:00:33;100191.16;;;9.54;76.27
30021;BME280;16861;52.294;7.760;2023-02-20T10:03:09;100202.44;;;9.56;76.30
30021;BME280;16861;52.294;7.760;2023-02-20T10:05:41;100192.56;;;9.61;76.83
30021;BME280;16861;52.294;7.760;2023-02-20T10:08:09;100205.59;;;9.64;76.68
30021;BME280;16861;52.294;7.760;2023-02-20T10:10:36;100209.78;;;9.69;76.68
30021;BME280;16861;52.294;7.760;2023-02-20T10:26:53;100219.50;;;9.86;76.15
30021;BME280;16861;52.294;7.760;2023-02-20T10:29:25;100226.47;;;9.87;76.09
30021;BME280;16861;52.294;7.760;2023-02-20T10:32:00;100228.19;;;9.88;75.89
30021;BME280;16861;52.294;7.760;2023-02-20T10:34:32;100215.81;;;9.90;76.21
30021;BME280;16861;52.294;7.760;2023-02-20T10:37:09;100216.66;;;9.90;75.87
30021;BME280;16861;52.294;7.760;2023-02-20T10:39:40;100207.84;;;9.91;76.13
30021;BME280;16861;52.294;7.760;2023-02-20T10:42:22;100193.84;;;9.91;75.68
30021;BME280;16861;52.294;7.760;2023-02-20T10:45:21;100201.94;;;9.86;75.18
30021;BME280;16861;52.294;7.760;2023-02-20T10:48:05;100202.81;;;9.87;75.71
30021;BME280;16861;52.294;7.760;2023-02-20T10:51:01;100208.16;;;9.85;74.89
30021;BME280;16861;52.294;7.760;2023-02-20T10:59:15;100189.50;;;9.90;76.00
30021;BME280;16861;52.294;7.760;2023-02-20T11:01:47;100203.31;;;9.95;76.38
30021;BME280;16861;52.294;7.760;2023-02-20T11:04:26;100205.00;;;9.96;75.83
30021;BME280;16861;52.294;7.760;2023-02-20T11:07:11;100196.19;;;9.97;75.36
30021;BME280;16861;52.294;7.760;2023-02-20T11:09:39;100200.44;;;10.00;76.25
30021;BME280;16861;52.294;7.760;2023-02-20T11:12:07;100173.28;;;9.99;76.61
30021;BME280;16861;52.294;7.760;2023-02-20T11:14:48;100173.44;;;9.96;75.78
30021;BME280;16861;52.294;7.760;2023-02-20T11:17:18;100175.91;;;9.99;76.23
30021;BME280;16861;52.294;7.760;2023-02-20T11:19:45;100163.63;;;10.00;76.67
30021;BME280;16861;52.294;7.760;2023-02-20T11:22:13;100177.72;;;9.99;76.69
30021;BME280;16861;52.294;7.760;2023-02-20T11:24:44;100184.59;;;10.01;76.86
30021;BME280;16861;52.294;7.760;2023-02-20T11:27:22;100182.03;;;10.00;76.16
30021;BME280;16861;52.294;7.760;2023-02-20T11:30:02;100166.25;;;10.00;75.94
30021;BME280;16861;52.294;7.760;2023-02-20T11:32:35;100168.69;;;10.04;76.47
30021;BME280;16861;52.294;7.760;2023-02-20T11:37:50;100143.13;;;10.07;75.93
30021;BME280;16861;52.294;7.760;2023-02-20T11:40:29;100148.47;;;10.05;75.71
30021;BME280;16861;52.294;7.760;2023-02-20T11:43:17;100153.72;;;10.05;76.05
30021;BME280;16861;52.294;7.760;2023-02-20T11:45:44;100158.78;;;10.10;76.74
30021;BME280;16861;52.294;7.760;2023-02-20T11:58:33;100140.13;;;10.14;76.83
30021;BME280;16861;52.294;7.760;2023-02-20T12:01:00;100155.00;;;10.15;76.95
30021;BME280;16861;52.294;7.760;2023-02-20T12:03:29;100156.63;;;10.18;76.90
30021;BME280;16861;52.294;7.760;2023-02-20T12:05:57;100154.75;;;10.20;76.98
30021;BME280;16861;52.294;7.760;2023-02-20T12:08:35;100155.69;;;10.19;76.48
30021;BME280;16861;52.294;7.760;2023-02-20T12:11:09;100140.78;;;10.20;76.59
30021;BME280;16861;52.294;7.760;2023-02-20T12:13:40;100144.25;;;10.20;76.65
30021;BME280;16861;52.294;7.760;2023-02-20T12:22:02;100137.66;;;10.11;76.88
30021;BME280;16861;52.294;7.760;2023-02-20T12:33:33;100146.78;;;10.04;77.45
30021;BME280;16861;52.294;7.760;2023-02-20T12:36:14;100144.06;;;10.06;77.67
30021;BME280;16861;52.294;7.760;2023-02-20T12:38:57;100137.31;;;10.00;77.62
30021;BME280;16861;52.294;7.760;2023-02-20T12:42:02;100130.44;;;9.97;77.70
30021;BME280;16861;52.294;7.760;2023-02-20T12:47:31;100159.50;;;9.94;78.07
30021;BME280;16861;52.294;7.760;2023-02-20T12:50:20;100151.56;;;9.96;78.36
30021;BME280;16861;52.294;7.760;2023-02-20T12:53:16;100145.47;;;9.95;78.22
30021;BME280;16861;52.294;7.760;2023-02-20T12:56:12;100141.91;;;9.96;78.53
30021;BME280;16861;52.294;7.760;2023-02-20T12:59:04;100142.72;;;9.97;78.43
30021;BME280;16861;52.294;7.760;2023-02-20T13:01:33;100144.22;;;10.02;78.48
30021;BME280;16861;52.294;7.760;2023-02-20T13:04:10;100145.16;;;10.01;78.24
30021;BME280;16861;52.294;7.760;2023-02-20T13:06:46;100147.63;;;10.04;78.24
30021;BME280;16861;52.294;7.760;2023-02-20T13:09:21;100141.50;;;10.04;78.44
30021;BME280;16861;52.294;7.760;2023-02-20T13:11:55;100131.06;;;10.02;78.56
30021;BME280;16861;52.294;7.760;2023-02-20T13:19:34;100122.41;;;10.00;78.57
30021;BME280;16861;52.294;7.760;2023-02-20T13:22:03;100114.44;;;10.02;78.92
30021;BME280;16861;52.294;7.760;2023-02-20T13:24:36;100123.16;;;10.02;78.92
30021;BME280;16861;52.294;7.760;2023-02-20T13:27:04;100111.81;;;10.02;79.09
30021;BME280;16861;52.294;7.760;2023-02-20T13:29:37;100106.38;;;10.05;78.82
30021;BME280;16861;52.294;7.760;2023-02-20T13:34:43;100087.84;;;10.08;79.07
30021;BME280;16861;52.294;7.760;2023-02-20T13:45:44;100097.59;;;10.06;79.08
30021;BME280;16861;52.294;7.760;2023-02-20T13:50:48;100093.78;;;10.12;79.30
30021;BME280;16861;52.294;7.760;2023-02-20T13:53:15;100098.13;;;10.13;79.43
30021;BME280;16861;52.294;7.760;2023-02-20T13:55:41;100085.75;;;10.15;79.40
30021;BME280;16861;52.294;7.760;2023-02-20T13:58:14;100093.78;;;10.12;78.89
30021;BME280;16861;52.294;7.760;2023-02-20T14:00:52;100070.91;;;10.14;78.95
30021;BME280;16861;52.294;7.760;2023-02-20T14:03:21;100070.66;;;10.19;79.20
30021;BME280;16861;52.294;7.760;2023-02-20T14:08:37;100070.56;;;10.20;79.32
30021;BME280;16861;52.294;7.760;2023-02-20T14:13:54;100062.69;;;10.20;79.35
30021;BME280;16861;52.294;7.760;2023-02-20T14:18:59;100055.66;;;10.21;79.42
30021;BME280;16861;52.294;7.760;2023-02-20T14:21:26;100057.19;;;10.25;79.53
30021;BME280;16861;52.294;7.760;2023-02-20T14:23:55;100056.34;;;10.24;79.42
30021;BME280;16861;52.294;7.760;2023-02-20T14:26:28;100051.94;;;10.25;79.42
30021;BME280;16861;52.294;7.760;2023-02-20T14:28:57;100057.13;;;10.26;79.54
30021;BME280;16861;52.294;7.760;2023-02-20T14:31:26;100053.63;;;10.26;79.40
30021;BME280;16861;52.294;7.760;2023-02-20T14:34:00;100053.56;;;10.27;79.19
30021;BME280;16861;52.294;7.760;2023-02-20T14:36:49;100067.66;;;10.26;78.83
30021;BME280;16861;52.294;7.760;2023-02-20T14:42:19;100063.84;;;10.32;79.16
30021;BME280;16861;52.294;7.760;2023-02-20T14:45:01;100057.75;;;10.32;79.11
30021;BME280;16861;52.294;7.760;2023-02-20T14:47:29;100055.88;;;10.34;79.41
30021;BME280;16861;52.294;7.760;2023-02-20T14:50:12;100059.50;;;10.31;78.85
30021;BME280;16861;52.294;7.760;2023-02-20T14:52:40;100062.00;;;10.34;79.38
30021;BME280;16861;52.294;7.760;2023-02-20T14:55:15;100051.53;;;10.33;79.08
30021;BME280;16861;52.294;7.760;2023-02-20T14:57:42;100053.09;;;10.37;79.40
30021;BME280;16861;52.294;7.760;2023-02-20T15:02:35;100055.66;;;10.38;79.52
30021;BME280;16861;52.294;7.760;2023-02-20T15:05:05;100033.72;;;10.38;79.23
30021;BME280;16861;52.294;7.760;2023-02-20T15:07:33;100048.63;;;10.39;79.26
30021;BME280;16861;52.294;7.760;2023-02-20T15:10:04;100050.31;;;10.40;79.32
30021;BME280;16861;52.294;7.760;2023-02-20T15:12:33;100045.97;;;10.39;79.20
30021;BME280;16861;52.294;7.760;2023-02-20T15:15:07;100049.44;;;10.39;79.12
30021;BME280;16861;52.294;7.760;2023-02-20T15:17:37;100043.16;;;10.42;79.41
30021;BME280;16861;52.294;7.760;2023-02-20T15:20:35;100058.13;;;10.41;79.21
30021;BME280;16861;52.294;7.760;2023-02-20T15:23:22;100064.09;;;10.45;78.99
30021;BME280;16861;52.294;7.760;2023-02-20T15:25:49;100063.88;;;10.50;79.12
30021;BME280;16861;52.294;7.760;2023-02-20T15:33:29;100061.13;;;10.51;79.19
30021;BME280;16861;52.294;7.760;2023-02-20T15:35:56;100058.50;;;10.51;79.10